createdAt,value
2023-02-12T00:01:16.016Z,23.13
2023-02-12T00:03:42.582Z,23.02
2023-02-12T00:06:10.302Z,25.27
2023-02-12T00:08:37.719Z,23.33
2023-02-12T00:11:19.751Z,23.13
2023-02-12T00:13:46.577Z,21.60
2023-02-12T00:16:15.532Z,23.15
2023-02-12T00:18:42.352Z,22.42
2023-02-12T00:21:08.920Z,21.55
2023-02-12T00:23:36.273Z,21.80
2023-02-12T00:26:14.066Z,21.57
2023-02-12T00:28:40.867Z,23.42
2023-02-12T00:31:10.003Z,23.83
2023-02-12T00:33:36.514Z,23.20
2023-02-12T00:36:04.081Z,24.45
2023-02-12T00:38:30.965Z,25.90
2023-02-12T00:40:57.501Z,23.73
2023-02-12T00:43:24.164Z,23.45
2023-02-12T00:45:50.785Z,25.08
2023-02-12T00:48:17.552Z,24.50
2023-02-12T00:50:45.739Z,24.30
2023-02-12T00:53:12.534Z,24.65
2023-02-12T00:55:39.205Z,25.98
2023-02-12T00:58:05.879Z,24.85
2023-02-12T01:00:32.294Z,24.88
2023-02-12T01:02:58.722Z,24.30
2023-02-12T01:05:25.231Z,22.83
2023-02-12T01:07:53.517Z,24.50
2023-02-12T01:10:23.525Z,22.85
2023-02-12T01:12:50.469Z,23.58
2023-02-12T01:15:17.738Z,24.20
2023-02-12T01:17:44.569Z,22.17
2023-02-12T01:20:14.807Z,22.50
2023-02-12T01:22:41.438Z,21.27
2023-02-12T01:25:08.348Z,22.75
2023-02-12T01:27:34.839Z,23.10
2023-02-12T01:30:01.609Z,26.08
2023-02-12T01:32:28.248Z,24.33
2023-02-12T01:34:54.691Z,25.08
2023-02-12T01:37:21.259Z,24.77
2023-02-12T01:39:47.656Z,25.67
2023-02-12T01:42:15.530Z,28.15
2023-02-12T01:45:06.425Z,27.10
2023-02-12T01:47:32.890Z,25.02
2023-02-12T01:49:59.527Z,26.52
2023-02-12T01:52:32.185Z,27.67
2023-02-12T01:55:02.334Z,25.83
2023-02-12T01:57:32.709Z,27.40
2023-02-12T02:00:01.662Z,24.30
2023-02-12T02:02:28.706Z,23.58
2023-02-12T02:05:00.197Z,23.20
2023-02-12T02:07:26.674Z,24.30
2023-02-12T02:09:53.600Z,23.63
2023-02-12T02:12:38.813Z,25.92
2023-02-12T02:15:05.942Z,24.35
2023-02-12T02:17:54.106Z,25.90
2023-02-12T02:20:38.706Z,24.75
2023-02-12T02:23:42.426Z,26.00
2023-02-12T02:26:28.959Z,22.73
2023-02-12T02:29:33.112Z,21.30
2023-02-12T02:32:25.260Z,21.17
2023-02-12T02:35:09.796Z,22.45
2023-02-12T02:37:40.802Z,22.45
2023-02-12T02:40:17.451Z,23.02
2023-02-12T02:42:48.893Z,23.15
2023-02-12T02:45:28.468Z,23.10
2023-02-12T02:48:08.234Z,22.90
2023-02-12T02:50:39.427Z,24.42
2023-02-12T02:53:11.972Z,23.45
2023-02-12T02:55:46.140Z,24.20
2023-02-12T02:58:18.669Z,23.47
2023-02-12T03:01:09.511Z,23.23
2023-02-12T03:04:01.305Z,26.05
2023-02-12T03:06:34.489Z,23.27
2023-02-12T03:09:09.535Z,21.88
2023-02-12T03:11:36.096Z,25.00
2023-02-12T03:14:14.613Z,25.98
2023-02-12T03:16:54.635Z,23.80
2023-02-12T03:19:25.304Z,24.65
2023-02-12T03:22:32.143Z,26.08
2023-02-12T03:25:09.662Z,27.03
2023-02-12T03:27:43.692Z,25.20
2023-02-12T03:30:11.012Z,26.00
2023-02-12T03:32:54.138Z,24.25
2023-02-12T03:35:22.860Z,21.67
2023-02-12T03:38:05.700Z,20.37
2023-02-12T03:40:41.467Z,21.25
2023-02-12T03:43:25.222Z,22.65
2023-02-12T03:46:10.300Z,23.08
2023-02-12T03:48:45.141Z,22.75
2023-02-12T03:51:32.753Z,22.20
2023-02-12T03:54:01.177Z,23.33
2023-02-12T03:56:34.737Z,22.42
2023-02-12T03:59:01.566Z,21.25
2023-02-12T04:01:28.671Z,21.58
2023-02-12T04:03:55.914Z,20.90
2023-02-12T04:06:25.808Z,19.30
2023-02-12T04:08:53.747Z,21.95
2023-02-12T04:11:53.851Z,20.40
2023-02-12T04:14:31.028Z,20.52
2023-02-12T04:17:23.435Z,23.70
2023-02-12T04:20:05.429Z,20.42
2023-02-12T04:22:37.493Z,18.67
2023-02-12T04:25:32.795Z,19.52
2023-02-12T04:28:10.479Z,19.13
2023-02-12T04:31:11.292Z,19.57
2023-02-12T04:33:47.362Z,19.80
2023-02-12T04:36:21.206Z,19.50
2023-02-12T04:38:53.712Z,20.23
2023-02-12T04:41:20.389Z,20.45
2023-02-12T04:43:46.990Z,20.70
2023-02-12T04:46:13.432Z,19.60
2023-02-12T04:48:54.374Z,20.58
2023-02-12T04:51:20.939Z,21.63
2023-02-12T04:53:47.739Z,20.75
2023-02-12T04:56:14.631Z,20.03
2023-02-12T04:58:42.022Z,20.95
2023-02-12T05:01:10.181Z,20.25
2023-02-12T05:03:37.488Z,19.75
2023-02-12T05:06:05.722Z,18.73
2023-02-12T05:08:32.400Z,18.10
2023-02-12T05:11:04.448Z,17.38
2023-02-12T05:13:31.160Z,18.23
2023-02-12T05:15:57.871Z,20.02
2023-02-12T05:18:24.598Z,19.98
2023-02-12T05:21:02.948Z,20.03
2023-02-12T05:23:31.513Z,19.88
2023-02-12T05:25:59.759Z,20.63
2023-02-12T05:28:26.830Z,19.45
2023-02-12T05:30:53.539Z,20.50
2023-02-12T05:33:19.992Z,19.80
2023-02-12T05:35:46.419Z,18.77
2023-02-12T05:38:12.877Z,18.45
2023-02-12T05:40:40.414Z,16.85
2023-02-12T05:43:06.882Z,17.83
2023-02-12T05:45:33.423Z,19.83
2023-02-12T05:48:00.116Z,18.17
2023-02-12T05:50:26.608Z,18.60
2023-02-12T05:52:53.060Z,18.70
2023-02-12T05:55:19.613Z,21.42
2023-02-12T05:57:46.261Z,19.37
2023-02-12T06:00:13.473Z,21.25
2023-02-12T06:02:40.058Z,19.83
2023-02-12T06:05:06.837Z,21.60
2023-02-12T06:07:33.283Z,22.38
2023-02-12T06:09:59.931Z,21.20
2023-02-12T06:12:26.401Z,22.55
2023-02-12T06:14:52.758Z,21.05
2023-02-12T06:17:19.400Z,21.48
2023-02-12T06:19:45.843Z,23.08
2023-02-12T06:22:12.299Z,22.10
2023-02-12T06:24:38.753Z,20.55
2023-02-12T06:27:05.161Z,19.98
2023-02-12T06:29:31.941Z,21.23
2023-02-12T06:31:58.463Z,19.17
2023-02-12T06:34:25.002Z,19.50
2023-02-12T06:36:51.406Z,18.98
2023-02-12T06:39:18.212Z,16.48
2023-02-12T06:41:44.722Z,16.83
2023-02-12T06:44:12.405Z,20.33
2023-02-12T06:46:38.924Z,21.10
2023-02-12T06:49:05.534Z,23.45
2023-02-12T06:51:32.323Z,22.80
2023-02-12T06:53:59.119Z,26.50
2023-02-12T06:56:26.823Z,24.88
2023-02-12T06:58:56.984Z,25.73
2023-02-12T07:01:26.327Z,25.35
2023-02-12T07:04:02.471Z,25.48
2023-02-12T07:06:30.619Z,25.15
2023-02-12T07:08:57.638Z,25.77
2023-02-12T07:11:26.781Z,26.60
2023-02-12T07:13:53.288Z,27.55
2023-02-12T07:16:20.069Z,26.77
2023-02-12T07:18:46.843Z,24.40
2023-02-12T07:21:15.154Z,25.83
2023-02-12T07:23:42.532Z,25.47
2023-02-12T07:26:12.129Z,24.42
2023-02-12T07:28:39.113Z,24.45
2023-02-12T07:31:18.464Z,26.13
2023-02-12T07:33:45.505Z,24.33
2023-02-12T07:36:15.553Z,25.77
2023-02-12T07:38:42.627Z,23.10
2023-02-12T07:41:12.404Z,23.02
2023-02-12T07:43:43.547Z,23.48
2023-02-12T07:46:22.398Z,22.92
2023-02-12T07:48:50.974Z,21.10
2023-02-12T07:51:21.834Z,20.67
2023-02-12T07:53:49.249Z,20.48
2023-02-12T07:56:19.093Z,20.13
2023-02-12T07:58:47.369Z,21.70
2023-02-12T08:01:15.244Z,21.70
2023-02-12T08:03:42.610Z,21.23
2023-02-12T08:06:14.438Z,21.80
2023-02-12T08:08:41.048Z,20.98
2023-02-12T08:11:10.100Z,20.40
2023-02-12T08:13:37.460Z,20.53
2023-02-12T08:16:07.382Z,20.25
2023-02-12T08:18:34.802Z,20.80
2023-02-12T08:21:09.805Z,20.70
2023-02-12T08:23:36.550Z,20.58
2023-02-12T08:26:17.929Z,20.63
2023-02-12T08:28:50.225Z,20.50
2023-02-12T08:31:20.262Z,21.55
2023-02-12T08:33:48.232Z,21.00
2023-02-12T08:36:18.796Z,21.70
2023-02-12T08:38:46.836Z,20.10
2023-02-12T08:41:16.019Z,21.63
2023-02-12T08:43:43.508Z,20.73
2023-02-12T08:46:19.044Z,20.98
2023-02-12T08:48:45.581Z,22.08
2023-02-12T08:51:15.309Z,20.00
2023-02-12T08:53:44.511Z,19.20
2023-02-12T08:56:20.899Z,19.55
2023-02-12T08:58:49.733Z,25.48
2023-02-12T09:01:24.541Z,19.80
2023-02-12T09:03:52.523Z,19.17
2023-02-12T09:06:21.616Z,19.90
2023-02-12T09:08:51.056Z,19.15
2023-02-12T09:11:32.870Z,20.88
2023-02-12T09:14:04.835Z,20.10
2023-02-12T09:16:37.643Z,18.27
2023-02-12T09:19:04.613Z,17.05
2023-02-12T09:21:31.088Z,16.73
2023-02-12T09:24:09.105Z,16.30
2023-02-12T09:26:35.794Z,15.93
2023-02-12T09:29:03.883Z,15.13
2023-02-12T09:31:32.166Z,15.15
2023-02-12T09:34:03.448Z,15.25
2023-02-12T09:36:31.138Z,14.98
2023-02-12T09:38:59.448Z,15.35
2023-02-12T09:41:54.172Z,14.83
2023-02-12T09:44:54.444Z,15.02
2023-02-12T09:47:33.951Z,14.38
2023-02-12T09:50:13.931Z,16.17
2023-02-12T09:52:41.637Z,14.15
2023-02-12T09:55:14.753Z,15.80
2023-02-12T09:57:42.447Z,13.30
2023-02-12T10:00:22.967Z,12.05
2023-02-12T10:02:53.522Z,12.73
2023-02-12T10:05:32.322Z,12.73
2023-02-12T10:08:26.530Z,12.23
2023-02-12T10:11:24.596Z,11.68
2023-02-12T10:14:30.926Z,14.63
2023-02-12T10:17:35.924Z,11.73
2023-02-12T10:20:20.323Z,10.82
2023-02-12T10:23:11.721Z,12.30
2023-02-12T10:25:54.824Z,13.13
2023-02-12T10:28:26.638Z,12.55
2023-02-12T10:30:58.706Z,13.95
2023-02-12T10:33:31.961Z,13.73
2023-02-12T10:36:20.401Z,14.23
2023-02-12T10:38:51.922Z,13.13
2023-02-12T10:41:22.978Z,12.25
2023-02-12T10:43:49.564Z,12.00
2023-02-12T10:46:17.437Z,13.05
2023-02-12T10:48:53.873Z,13.47
2023-02-12T10:51:41.188Z,12.77
2023-02-12T10:54:35.300Z,12.20
2023-02-12T10:57:27.951Z,12.68
2023-02-12T10:59:59.475Z,12.55
2023-02-12T11:02:34.008Z,12.87
2023-02-12T11:05:22.896Z,12.13
2023-02-12T11:07:51.394Z,10.82
2023-02-12T11:10:40.339Z,12.57
2023-02-12T11:13:25.911Z,11.70
2023-02-12T11:15:55.994Z,12.53
2023-02-12T11:18:28.910Z,11.63
2023-02-12T11:21:09.386Z,12.07
2023-02-12T11:23:43.277Z,13.27
2023-02-12T11:26:19.679Z,12.38
2023-02-12T11:29:03.242Z,11.93
2023-02-12T11:31:35.335Z,13.52
2023-02-12T11:34:05.722Z,13.25
2023-02-12T11:36:36.798Z,13.05
2023-02-12T11:39:04.782Z,14.52
2023-02-12T11:41:38.786Z,11.97
2023-02-12T11:44:35.365Z,11.48
2023-02-12T11:47:09.313Z,13.00
2023-02-12T11:50:19.460Z,13.38
2023-02-12T11:52:50.234Z,13.13
2023-02-12T11:55:32.355Z,12.37
2023-02-12T11:58:15.729Z,12.77
2023-02-12T12:01:01.018Z,12.95
2023-02-12T12:03:36.576Z,13.50
2023-02-12T12:06:29.532Z,12.93
2023-02-12T12:09:22.117Z,11.60
2023-02-12T12:12:06.579Z,12.38
2023-02-12T12:14:59.419Z,11.45
2023-02-12T12:17:59.442Z,11.70
2023-02-12T12:20:32.422Z,11.25
2023-02-12T12:23:50.317Z,10.40
2023-02-12T12:26:25.246Z,9.73
2023-02-12T12:29:06.655Z,9.15
2023-02-12T12:31:35.881Z,9.82
2023-02-12T12:34:21.805Z,10.05
2023-02-12T12:37:15.157Z,10.50
2023-02-12T12:40:20.830Z,9.65
2023-02-12T12:42:47.435Z,10.02
2023-02-12T12:45:31.172Z,10.05
2023-02-12T12:48:25.615Z,9.57
2023-02-12T12:51:10.756Z,9.20
2023-02-12T12:54:04.539Z,8.30
2023-02-12T12:56:58.429Z,8.50
2023-02-12T12:59:43.712Z,8.57
2023-02-12T13:02:41.497Z,8.18
2023-02-12T13:05:32.962Z,7.57
2023-02-12T13:08:48.554Z,8.70
2023-02-12T13:11:28.620Z,8.93
2023-02-12T13:14:17.714Z,7.70
2023-02-12T13:16:53.536Z,7.05
2023-02-12T13:19:36.154Z,7.93
2023-02-12T13:22:18.301Z,7.38
2023-02-12T13:24:50.432Z,8.05
2023-02-12T13:27:20.643Z,8.00
2023-02-12T13:30:00.455Z,8.40
2023-02-12T13:32:36.005Z,8.83
2023-02-12T13:35:06.810Z,8.77
2023-02-12T13:37:46.577Z,9.13
2023-02-12T13:40:19.381Z,10.23
2023-02-12T13:43:07.667Z,8.60
2023-02-12T13:45:34.074Z,8.37
2023-02-12T13:48:29.782Z,7.78
2023-02-12T13:51:28.554Z,47.05
2023-02-12T13:54:09.815Z,15.35
2023-02-12T13:56:42.469Z,8.63
2023-02-12T13:59:39.754Z,8.70
2023-02-12T14:02:12.485Z,12.45
2023-02-12T14:04:45.691Z,14.30
2023-02-12T14:07:14.719Z,10.38
2023-02-12T14:09:44.403Z,13.35
2023-02-12T14:12:16.892Z,15.07
2023-02-12T14:14:50.349Z,26.38
2023-02-12T14:17:28.947Z,19.58
2023-02-12T14:20:05.267Z,18.75
2023-02-12T14:22:31.700Z,15.50
2023-02-12T14:25:00.746Z,13.10
2023-02-12T14:27:52.512Z,13.05
2023-02-12T14:30:35.231Z,13.15
2023-02-12T14:33:07.962Z,12.63
2023-02-12T14:35:40.557Z,11.40
2023-02-12T14:38:32.151Z,11.47
2023-02-12T14:41:41.499Z,10.15
2023-02-12T14:44:17.359Z,10.40
2023-02-12T14:46:54.205Z,9.30
2023-02-12T14:49:27.591Z,9.07
2023-02-12T14:52:18.003Z,8.00
2023-02-12T14:54:57.932Z,8.27
2023-02-12T14:57:30.406Z,7.68
2023-02-12T15:00:01.907Z,7.50
2023-02-12T15:02:32.285Z,7.82
2023-02-12T15:05:07.544Z,8.10
2023-02-12T15:07:55.964Z,7.32
2023-02-12T15:10:44.444Z,7.53
2023-02-12T15:13:22.924Z,12.35
2023-02-12T15:15:55.539Z,7.20
2023-02-12T15:18:31.776Z,6.80
2023-02-12T15:21:13.433Z,7.03
2023-02-12T15:23:42.533Z,7.35
2023-02-12T15:26:24.147Z,7.63
2023-02-12T15:28:53.279Z,7.25
2023-02-12T15:31:26.232Z,6.17
2023-02-12T15:33:56.378Z,9.52
2023-02-12T15:36:26.826Z,9.32
2023-02-12T15:38:59.070Z,7.20
2023-02-12T15:41:36.921Z,7.05
2023-02-12T15:44:17.881Z,6.00
2023-02-12T15:46:55.823Z,6.85
2023-02-12T15:49:27.863Z,6.97
2023-02-12T15:51:55.570Z,6.05
2023-02-12T15:54:22.352Z,5.88
2023-02-12T15:56:49.185Z,6.07
2023-02-12T15:59:24.991Z,7.75
2023-02-12T16:02:03.462Z,7.50
2023-02-12T16:04:37.328Z,13.30
2023-02-12T16:07:04.051Z,11.13
2023-02-12T16:09:36.285Z,8.47
2023-02-12T16:12:05.672Z,8.85
2023-02-12T16:14:40.804Z,9.32
2023-02-12T16:17:25.609Z,10.13
2023-02-12T16:19:56.139Z,12.13
2023-02-12T16:22:27.707Z,15.67
2023-02-12T16:24:58.721Z,13.63
2023-02-12T16:27:29.077Z,29.48
2023-02-12T16:30:01.847Z,11.15
2023-02-12T16:32:39.063Z,9.73
2023-02-12T16:35:11.482Z,11.80
2023-02-12T16:37:37.894Z,10.73
2023-02-12T16:40:21.436Z,12.25
2023-02-12T16:42:47.838Z,12.07
2023-02-12T16:45:32.332Z,13.48
2023-02-12T16:48:08.537Z,13.23
2023-02-12T16:50:39.394Z,13.52
2023-02-12T16:53:08.531Z,14.90
2023-02-12T16:55:36.651Z,11.82
2023-02-12T16:58:03.233Z,11.85
2023-02-12T17:00:29.666Z,13.30
2023-02-12T17:02:56.735Z,13.35
2023-02-12T17:05:23.693Z,13.73
2023-02-12T17:07:50.404Z,13.63
2023-02-12T17:10:17.401Z,10.82
2023-02-12T17:12:48.559Z,12.37
2023-02-12T17:15:24.964Z,11.45
2023-02-12T17:17:51.364Z,11.85
2023-02-12T17:20:17.902Z,18.00
2023-02-12T17:22:54.100Z,13.75
2023-02-12T17:25:21.382Z,11.40
2023-02-12T17:27:47.747Z,13.90
2023-02-12T17:30:24.194Z,10.68
2023-02-12T17:32:51.439Z,12.13
2023-02-12T17:35:18.023Z,12.68
2023-02-12T17:37:45.218Z,16.30
2023-02-12T17:40:12.616Z,13.93
2023-02-12T17:42:39.598Z,11.02
2023-02-12T17:45:06.536Z,19.25
2023-02-12T17:47:39.583Z,13.55
2023-02-12T17:50:11.179Z,12.53
2023-02-12T17:52:37.793Z,12.25
2023-02-12T17:55:05.145Z,9.65
2023-02-12T17:57:32.009Z,12.20
2023-02-12T17:59:58.990Z,10.00
2023-02-12T18:02:25.827Z,8.57
2023-02-12T18:04:52.287Z,13.55
2023-02-12T18:07:18.777Z,9.48
2023-02-12T18:09:45.241Z,11.50
2023-02-12T18:12:11.651Z,11.73
2023-02-12T18:14:38.360Z,9.93
2023-02-12T18:17:04.906Z,9.40
2023-02-12T18:19:31.432Z,8.57
2023-02-12T18:21:57.939Z,9.35
2023-02-12T18:24:24.416Z,10.02
2023-02-12T18:26:51.071Z,8.53
2023-02-12T18:29:17.642Z,8.88
2023-02-12T18:31:44.407Z,8.25
2023-02-12T18:34:10.947Z,12.48
2023-02-12T18:36:37.555Z,8.15
2023-02-12T18:39:04.292Z,11.63
2023-02-12T18:41:31.925Z,8.93
2023-02-12T18:43:59.430Z,8.07
2023-02-12T18:46:28.702Z,8.95
2023-02-12T18:48:56.229Z,7.47
2023-02-12T18:51:26.409Z,7.10
2023-02-12T18:54:01.362Z,6.93
2023-02-12T18:56:29.375Z,7.03
2023-02-12T18:58:57.632Z,6.85
2023-02-12T19:01:25.045Z,7.97
2023-02-12T19:03:56.736Z,7.87
2023-02-12T19:06:23.794Z,8.10
2023-02-12T19:08:54.961Z,7.38
2023-02-12T19:11:21.401Z,9.05
2023-02-12T19:13:48.992Z,9.02
2023-02-12T19:16:17.718Z,6.73
2023-02-12T19:18:44.693Z,7.43
2023-02-12T19:21:13.363Z,7.78
2023-02-12T19:23:40.407Z,7.47
2023-02-12T19:26:09.121Z,8.05
2023-02-12T19:28:38.191Z,8.57
2023-02-12T19:31:20.384Z,8.30
2023-02-12T19:33:48.481Z,7.40
2023-02-12T19:36:18.162Z,8.35
2023-02-12T19:38:45.760Z,7.90
2023-02-12T19:41:17.971Z,8.80
2023-02-12T19:43:44.601Z,7.90
2023-02-12T19:46:14.301Z,7.90
2023-02-12T19:48:41.392Z,8.27
2023-02-12T19:51:12.616Z,8.00
2023-02-12T19:53:39.141Z,7.90
2023-02-12T19:56:07.308Z,8.20
2023-02-12T19:58:34.415Z,8.68
2023-02-12T20:01:00.988Z,9.18
2023-02-12T20:03:28.761Z,8.55
2023-02-12T20:06:03.876Z,13.07
2023-02-12T20:08:30.445Z,14.73
2023-02-12T20:10:57.134Z,10.25
2023-02-12T20:13:23.898Z,9.98
2023-02-12T20:15:50.499Z,9.32
2023-02-12T20:18:17.042Z,9.70
2023-02-12T20:20:43.454Z,9.73
2023-02-12T20:23:09.941Z,9.98
2023-02-12T20:25:42.689Z,9.68
2023-02-12T20:28:09.198Z,9.63
2023-02-12T20:30:39.477Z,9.27
2023-02-12T20:33:06.122Z,9.18
2023-02-12T20:35:32.757Z,11.15
2023-02-12T20:37:59.341Z,19.50
2023-02-12T20:40:25.804Z,10.52
2023-02-12T20:42:52.176Z,9.90
2023-02-12T20:45:18.702Z,10.23
2023-02-12T20:47:45.112Z,9.80
2023-02-12T20:50:11.569Z,9.80
2023-02-12T20:52:38.191Z,10.40
2023-02-12T20:55:04.904Z,10.57
2023-02-12T20:57:33.508Z,10.43
2023-02-12T21:00:00.840Z,9.20
2023-02-12T21:02:28.017Z,10.77
2023-02-12T21:04:56.097Z,10.80
2023-02-12T21:07:23.013Z,10.53
2023-02-12T21:09:50.196Z,9.65
2023-02-12T21:12:16.719Z,10.32
2023-02-12T21:14:43.354Z,10.52
2023-02-12T21:17:09.780Z,11.27
2023-02-12T21:19:36.893Z,10.33
2023-02-12T21:22:03.602Z,11.10
2023-02-12T21:24:30.025Z,11.80
2023-02-12T21:26:56.639Z,13.20
2023-02-12T21:29:23.456Z,12.32
2023-02-12T21:31:50.838Z,14.50
2023-02-12T21:34:20.499Z,11.35
2023-02-12T21:36:47.841Z,13.60
2023-02-12T21:39:24.348Z,10.38
2023-02-12T21:41:53.054Z,12.25
2023-02-12T21:44:20.504Z,12.13
2023-02-12T21:46:47.225Z,11.15
2023-02-12T21:49:23.099Z,10.82
2023-02-12T21:51:49.620Z,11.18
2023-02-12T21:54:16.198Z,11.50
2023-02-12T21:56:45.674Z,12.03
2023-02-12T21:59:13.388Z,10.80
2023-02-12T22:01:51.599Z,10.55
2023-02-12T22:04:19.419Z,11.10
2023-02-12T22:06:48.344Z,12.85
2023-02-12T22:09:16.641Z,12.03
2023-02-12T22:11:43.694Z,13.35
2023-02-12T22:14:13.809Z,11.77
2023-02-12T22:16:40.400Z,12.50
2023-02-12T22:19:07.681Z,11.88
2023-02-12T22:21:37.197Z,11.13
2023-02-12T22:24:06.965Z,11.35
2023-02-12T22:26:33.992Z,12.38
2023-02-12T22:29:08.864Z,12.27
2023-02-12T22:31:38.734Z,11.48
2023-02-12T22:34:10.142Z,11.07
2023-02-12T22:36:38.455Z,10.32
2023-02-12T22:39:05.688Z,11.10
2023-02-12T22:41:33.099Z,11.70
2023-02-12T22:44:00.474Z,10.68
2023-02-12T22:46:27.690Z,10.13
2023-02-12T22:48:54.156Z,10.98
2023-02-12T22:51:22.469Z,11.15
2023-02-12T22:53:49.257Z,11.50
2023-02-12T22:56:15.998Z,11.23
2023-02-12T22:58:43.120Z,11.00
2023-02-12T23:01:16.610Z,11.15
2023-02-12T23:03:43.392Z,11.00
2023-02-12T23:06:12.599Z,11.15
2023-02-12T23:08:39.980Z,10.75
2023-02-12T23:11:08.342Z,10.63
2023-02-12T23:13:36.156Z,11.13
2023-02-12T23:16:03.380Z,11.13
2023-02-12T23:18:30.212Z,11.50
2023-02-12T23:20:56.985Z,11.30
2023-02-12T23:23:23.796Z,10.60
2023-02-12T23:25:50.714Z,11.38
2023-02-12T23:28:17.594Z,11.00
2023-02-12T23:30:44.165Z,10.27
2023-02-12T23:33:11.212Z,9.82
2023-02-12T23:35:37.626Z,10.23
2023-02-12T23:38:04.441Z,11.05
2023-02-12T23:40:32.255Z,10.88
2023-02-12T23:42:58.741Z,10.30
2023-02-12T23:45:25.494Z,9.82
2023-02-12T23:47:51.984Z,10.37
2023-02-12T23:50:18.578Z,9.65
2023-02-12T23:52:45.221Z,10.25
2023-02-12T23:55:11.811Z,9.90
2023-02-12T23:57:38.283Z,10.73
